createdAt,value
2019-01-30T00:00:35.259Z,975.02
2019-01-30T00:01:35.430Z,975.01
2019-01-30T00:02:35.597Z,974.97
2019-01-30T00:03:35.756Z,974.95
2019-01-30T00:04:35.926Z,974.93
2019-01-30T00:05:36.097Z,974.94
2019-01-30T00:06:36.275Z,974.94
2019-01-30T00:07:36.449Z,974.93
2019-01-30T00:08:36.603Z,974.87
2019-01-30T00:09:36.787Z,974.84
2019-01-30T00:10:36.956Z,974.81
2019-01-30T00:11:37.118Z,974.79
2019-01-30T00:12:37.278Z,974.77
2019-01-30T00:13:37.436Z,974.75
2019-01-30T00:14:37.602Z,974.74
2019-01-30T00:15:37.767Z,974.75
2019-01-30T00:16:37.928Z,974.71
2019-01-30T00:17:38.116Z,974.71
2019-01-30T00:18:38.276Z,974.70
2019-01-30T00:19:38.474Z,974.63
2019-01-30T00:20:38.681Z,974.64
2019-01-30T00:21:38.835Z,974.64
2019-01-30T00:22:39.018Z,974.63
2019-01-30T00:23:39.153Z,974.60
2019-01-30T00:24:39.321Z,974.54
2019-01-30T00:25:39.480Z,974.51
2019-01-30T00:26:39.643Z,974.50
2019-01-30T00:27:39.813Z,974.46
2019-01-30T00:28:39.981Z,974.47
2019-01-30T00:29:40.122Z,974.45
2019-01-30T00:30:40.284Z,974.43
2019-01-30T00:31:40.440Z,974.47
2019-01-30T00:32:40.599Z,974.39
2019-01-30T00:33:40.760Z,974.35
2019-01-30T00:34:40.920Z,974.35
2019-01-30T00:35:41.087Z,974.36
2019-01-30T00:36:41.253Z,974.35
2019-01-30T00:37:41.422Z,974.32
2019-01-30T00:38:41.583Z,974.29
2019-01-30T00:39:41.739Z,974.27
2019-01-30T00:40:41.910Z,974.25
2019-01-30T00:41:42.091Z,974.22
2019-01-30T00:42:42.242Z,974.22
2019-01-30T00:43:42.396Z,974.18
2019-01-30T00:44:42.566Z,974.19
2019-01-30T00:45:42.744Z,974.17
2019-01-30T00:46:42.912Z,974.15
2019-01-30T00:47:43.083Z,974.09
2019-01-30T00:48:43.243Z,974.13
2019-01-30T00:49:43.476Z,974.12
2019-01-30T00:50:43.601Z,974.08
2019-01-30T00:51:43.750Z,974.10
2019-01-30T00:52:43.906Z,974.07
2019-01-30T00:53:44.071Z,974.08
2019-01-30T00:54:44.239Z,974.07
2019-01-30T00:55:51.871Z,974.10
2019-01-30T00:56:44.541Z,974.07
2019-01-30T00:57:53.003Z,974.08
2019-01-30T00:58:54.062Z,974.07
2019-01-30T00:59:53.121Z,974.03
2019-01-30T01:00:45.301Z,974.05
2019-01-30T01:01:45.478Z,974.01
2019-01-30T01:02:45.738Z,974.02
2019-01-30T01:03:45.850Z,973.98
2019-01-30T01:04:45.929Z,974.01
2019-01-30T01:05:46.102Z,974.02
2019-01-30T01:06:46.302Z,973.98
2019-01-30T01:07:46.544Z,973.98
2019-01-30T01:08:46.621Z,974.01
2019-01-30T01:09:46.825Z,973.95
2019-01-30T01:10:47.011Z,973.94
2019-01-30T01:11:47.184Z,973.94
2019-01-30T01:12:47.416Z,973.90
2019-01-30T01:13:47.495Z,973.89
2019-01-30T01:14:47.696Z,973.88
2019-01-30T01:15:47.906Z,973.89
2019-01-30T01:16:48.092Z,973.89
2019-01-30T01:17:48.334Z,973.90
2019-01-30T01:18:48.421Z,973.85
2019-01-30T01:19:48.623Z,973.83
2019-01-30T01:20:48.849Z,973.83
2019-01-30T01:21:48.941Z,973.82
2019-01-30T01:22:49.156Z,973.82
2019-01-30T01:23:49.247Z,973.80
2019-01-30T01:24:49.428Z,973.83
2019-01-30T01:25:49.649Z,973.83
2019-01-30T01:26:49.893Z,973.79
2019-01-30T01:27:50.010Z,973.74
2019-01-30T01:28:50.070Z,973.79
2019-01-30T01:29:50.263Z,973.80
2019-01-30T01:30:50.448Z,973.76
2019-01-30T01:31:50.653Z,973.77
2019-01-30T01:32:50.854Z,973.73
2019-01-30T01:33:51.052Z,973.76
2019-01-30T01:34:51.254Z,973.77
2019-01-30T01:35:51.445Z,973.78
2019-01-30T01:36:51.632Z,973.73
2019-01-30T01:37:51.817Z,973.69
2019-01-30T01:38:52.054Z,973.67
2019-01-30T01:39:52.120Z,973.67
2019-01-30T01:40:52.261Z,973.60
2019-01-30T01:41:52.311Z,973.62
2019-01-30T01:42:52.528Z,973.60
2019-01-30T01:43:52.774Z,973.55
2019-01-30T01:44:52.868Z,973.56
2019-01-30T01:45:53.073Z,973.55
2019-01-30T01:46:53.307Z,973.56
2019-01-30T01:47:53.409Z,973.52
2019-01-30T01:48:53.497Z,973.48
2019-01-30T01:49:53.699Z,973.46
2019-01-30T01:50:53.915Z,973.48
2019-01-30T01:51:53.984Z,973.49
2019-01-30T01:52:54.159Z,973.40
2019-01-30T01:53:54.293Z,973.44
2019-01-30T01:54:54.479Z,973.38
2019-01-30T01:55:54.688Z,973.38
2019-01-30T01:56:54.893Z,973.38
2019-01-30T01:57:55.088Z,973.37
2019-01-30T01:58:55.232Z,973.34
2019-01-30T01:59:55.302Z,973.33
2019-01-30T02:00:55.477Z,973.29
2019-01-30T02:01:55.663Z,973.26
2019-01-30T02:02:55.852Z,973.26
2019-01-30T02:03:56.088Z,973.27
2019-01-30T02:04:56.149Z,973.23
2019-01-30T02:05:56.350Z,973.23
2019-01-30T02:06:56.538Z,973.18
2019-01-30T02:07:56.719Z,973.15
2019-01-30T02:08:57.043Z,973.08
2019-01-30T02:09:57.036Z,973.13
2019-01-30T02:10:57.258Z,973.12
2019-01-30T02:11:57.447Z,973.09
2019-01-30T02:12:57.632Z,973.09
2019-01-30T02:13:57.842Z,973.07
2019-01-30T02:14:58.076Z,973.05
2019-01-30T02:15:58.161Z,973.08
2019-01-30T02:16:58.274Z,973.01
2019-01-30T02:17:58.335Z,972.98
2019-01-30T02:18:58.587Z,972.95
2019-01-30T02:19:58.757Z,972.97
2019-01-30T02:20:58.810Z,972.98
2019-01-30T02:21:59.049Z,972.96
2019-01-30T02:22:59.215Z,972.91
2019-01-30T02:23:59.429Z,972.93
2019-01-30T02:24:59.622Z,972.85
2019-01-30T02:25:59.811Z,972.88
2019-01-30T02:26:59.990Z,972.88
2019-01-30T02:28:00.178Z,972.84
2019-01-30T02:29:00.414Z,972.84
2019-01-30T02:30:00.586Z,972.82
2019-01-30T02:31:00.760Z,972.79
2019-01-30T02:32:00.994Z,972.80
2019-01-30T02:33:00.926Z,972.71
2019-01-30T02:34:01.039Z,972.72
2019-01-30T02:35:01.238Z,972.71
2019-01-30T02:36:01.456Z,972.69
2019-01-30T02:37:01.549Z,972.67
2019-01-30T02:38:01.743Z,972.69
2019-01-30T02:39:01.947Z,972.68
2019-01-30T02:40:02.132Z,972.71
2019-01-30T02:41:02.324Z,972.66
2019-01-30T02:42:02.606Z,972.69
2019-01-30T02:43:02.669Z,972.66
2019-01-30T02:44:02.859Z,972.74
2019-01-30T02:45:03.136Z,972.69
2019-01-30T02:46:03.190Z,972.69
2019-01-30T02:47:03.383Z,972.68
2019-01-30T02:48:03.569Z,972.62
2019-01-30T02:49:03.749Z,972.63
2019-01-30T02:50:03.947Z,972.65
2019-01-30T02:51:04.215Z,972.60
2019-01-30T02:52:04.288Z,972.62
2019-01-30T02:53:04.494Z,972.61
2019-01-30T02:54:04.687Z,972.54
2019-01-30T02:55:04.944Z,972.59
2019-01-30T02:56:05.012Z,972.57
2019-01-30T02:57:05.253Z,972.57
2019-01-30T02:58:05.353Z,972.57
2019-01-30T02:59:05.461Z,972.55
2019-01-30T03:00:05.542Z,972.54
2019-01-30T03:01:05.731Z,972.53
2019-01-30T03:02:05.925Z,972.50
2019-01-30T03:03:06.118Z,972.54
2019-01-30T03:04:06.294Z,972.47
2019-01-30T03:05:06.509Z,972.48
2019-01-30T03:06:06.745Z,972.41
2019-01-30T03:07:06.800Z,972.42
2019-01-30T03:08:07.044Z,972.35
2019-01-30T03:09:07.093Z,972.41
2019-01-30T03:10:07.279Z,972.39
2019-01-30T03:11:07.476Z,972.39
2019-01-30T03:12:07.706Z,972.39
2019-01-30T03:13:07.770Z,972.40
2019-01-30T03:14:07.992Z,972.37
2019-01-30T03:15:08.220Z,972.36
2019-01-30T03:16:08.351Z,972.25
2019-01-30T03:17:08.391Z,972.25
2019-01-30T03:18:09.785Z,972.32
2019-01-30T03:19:09.344Z,972.30
2019-01-30T03:20:10.398Z,972.28
2019-01-30T03:21:09.916Z,972.33
2019-01-30T03:22:09.286Z,972.32
2019-01-30T03:23:10.296Z,972.27
2019-01-30T03:24:09.749Z,972.24
2019-01-30T03:25:09.838Z,972.26
2019-01-30T03:26:10.025Z,972.28
2019-01-30T03:27:11.734Z,972.28
2019-01-30T03:28:12.492Z,972.32
2019-01-30T03:29:10.562Z,972.31
2019-01-30T03:30:10.757Z,972.24
2019-01-30T03:31:17.941Z,972.25
2019-01-30T03:32:12.356Z,972.23
2019-01-30T03:33:11.338Z,972.20
2019-01-30T03:34:11.401Z,972.20
2019-01-30T03:35:11.598Z,972.20
2019-01-30T03:36:11.821Z,972.11
2019-01-30T03:37:12.004Z,972.15
2019-01-30T03:38:13.890Z,972.08
2019-01-30T03:39:12.393Z,972.04
2019-01-30T03:40:12.470Z,972.09
2019-01-30T03:41:13.307Z,972.06
2019-01-30T03:42:12.852Z,972.05
2019-01-30T03:43:13.070Z,972.02
2019-01-30T03:44:14.134Z,972.00
2019-01-30T03:45:14.256Z,971.97
2019-01-30T03:46:13.906Z,972.00
2019-01-30T03:47:13.813Z,971.98
2019-01-30T03:48:13.870Z,971.95
2019-01-30T03:49:15.547Z,971.95
2019-01-30T03:50:14.231Z,971.91
2019-01-30T03:51:15.475Z,971.84
2019-01-30T03:52:14.558Z,971.83
2019-01-30T03:53:14.654Z,971.82
2019-01-30T03:54:14.837Z,971.81
2019-01-30T03:55:14.907Z,971.82
2019-01-30T03:56:15.121Z,971.77
2019-01-30T03:57:15.178Z,971.75
2019-01-30T03:58:15.405Z,971.73
2019-01-30T03:59:15.599Z,971.76
2019-01-30T04:00:15.804Z,971.74
2019-01-30T04:01:26.245Z,971.69
2019-01-30T04:02:16.308Z,971.72
2019-01-30T04:03:16.376Z,971.71
2019-01-30T04:04:16.589Z,971.76
2019-01-30T04:05:16.781Z,971.70
2019-01-30T04:06:17.004Z,971.68
2019-01-30T04:07:17.177Z,971.73
2019-01-30T04:08:17.390Z,971.75
2019-01-30T04:09:17.567Z,971.69
2019-01-30T04:10:17.784Z,971.73
2019-01-30T04:11:17.872Z,971.70
2019-01-30T04:12:18.063Z,971.69
2019-01-30T04:13:18.265Z,971.65
2019-01-30T04:14:18.457Z,971.66
2019-01-30T04:15:18.641Z,971.60
2019-01-30T04:16:18.819Z,971.60
2019-01-30T04:17:18.995Z,971.63
2019-01-30T04:18:19.110Z,971.63
2019-01-30T04:19:19.210Z,971.62
2019-01-30T04:20:19.425Z,971.60
2019-01-30T04:21:19.607Z,971.62
2019-01-30T04:22:19.806Z,971.56
2019-01-30T04:23:19.922Z,971.63
2019-01-30T04:24:19.979Z,971.57
2019-01-30T04:25:20.197Z,971.55
2019-01-30T04:26:20.305Z,971.52
2019-01-30T04:27:20.481Z,971.51
2019-01-30T04:28:20.670Z,971.45
2019-01-30T04:29:20.884Z,971.49
2019-01-30T04:30:21.101Z,971.48
2019-01-30T04:31:21.273Z,971.42
2019-01-30T04:32:21.476Z,971.45
2019-01-30T04:33:21.721Z,971.40
2019-01-30T04:34:21.826Z,971.36
2019-01-30T04:35:21.881Z,971.35
2019-01-30T04:36:21.995Z,971.40
2019-01-30T04:37:22.228Z,971.35
2019-01-30T04:38:22.324Z,971.34
2019-01-30T04:39:22.517Z,971.33
2019-01-30T04:40:26.984Z,971.29
2019-01-30T04:41:23.991Z,971.24
2019-01-30T04:42:23.007Z,971.21
2019-01-30T04:43:23.107Z,971.18
2019-01-30T04:44:23.288Z,971.19
2019-01-30T04:45:23.579Z,971.21
2019-01-30T04:46:23.690Z,971.22
2019-01-30T04:47:23.921Z,971.21
2019-01-30T04:48:24.107Z,971.21
2019-01-30T04:49:24.271Z,971.17
2019-01-30T04:50:24.488Z,971.15
2019-01-30T04:51:24.700Z,971.15
2019-01-30T04:52:24.881Z,971.15
2019-01-30T04:53:25.057Z,971.14
2019-01-30T04:54:25.341Z,971.13
2019-01-30T04:55:26.680Z,971.13
2019-01-30T04:56:28.304Z,971.10
2019-01-30T04:57:29.092Z,971.07
2019-01-30T04:58:28.332Z,971.08
2019-01-30T04:59:30.155Z,971.07
2019-01-30T05:00:29.773Z,971.07
2019-01-30T05:01:31.053Z,971.05
2019-01-30T05:02:30.991Z,971.08
2019-01-30T05:03:27.267Z,971.09
2019-01-30T05:04:27.103Z,971.07
2019-01-30T05:05:31.716Z,971.08
2019-01-30T05:06:27.667Z,971.07
2019-01-30T05:07:27.638Z,971.07
2019-01-30T05:08:27.796Z,971.05
2019-01-30T05:09:27.946Z,971.05
2019-01-30T05:10:29.934Z,971.05
2019-01-30T05:11:28.258Z,971.00
2019-01-30T05:12:28.028Z,970.98
2019-01-30T05:13:28.252Z,970.98
2019-01-30T05:14:28.423Z,970.97
2019-01-30T05:15:28.595Z,970.99
2019-01-30T05:16:28.785Z,970.95
2019-01-30T05:17:29.021Z,970.95
2019-01-30T05:18:29.080Z,970.88
2019-01-30T05:19:29.276Z,970.90
2019-01-30T05:20:29.495Z,970.89
2019-01-30T05:21:29.562Z,970.90
2019-01-30T05:22:29.755Z,970.95
2019-01-30T05:23:29.987Z,970.92
2019-01-30T05:24:30.134Z,970.95
2019-01-30T05:25:30.192Z,970.97
2019-01-30T05:26:30.391Z,970.97
2019-01-30T05:27:30.597Z,970.97
2019-01-30T05:28:30.803Z,971.01
2019-01-30T05:29:30.995Z,971.03
2019-01-30T05:30:31.186Z,971.03
2019-01-30T05:31:31.392Z,971.02
2019-01-30T05:32:31.598Z,971.00
2019-01-30T05:33:31.780Z,971.03
2019-01-30T05:34:31.969Z,971.02
2019-01-30T05:35:32.195Z,971.04
2019-01-30T05:36:32.391Z,970.98
2019-01-30T05:37:32.657Z,971.01
2019-01-30T05:38:32.742Z,971.03
2019-01-30T05:39:32.935Z,971.06
2019-01-30T05:40:33.026Z,971.06
2019-01-30T05:41:33.205Z,971.07
2019-01-30T05:42:33.407Z,971.10
2019-01-30T05:43:33.643Z,971.11
2019-01-30T05:44:33.735Z,971.06
2019-01-30T05:45:33.904Z,971.08
2019-01-30T05:46:34.086Z,971.07
2019-01-30T05:47:34.261Z,971.06
2019-01-30T05:48:34.456Z,971.07
2019-01-30T05:49:34.630Z,971.04
2019-01-30T05:50:34.904Z,971.00
2019-01-30T05:51:34.963Z,971.00
2019-01-30T05:52:35.192Z,970.96
2019-01-30T05:53:35.378Z,970.98
2019-01-30T05:54:35.448Z,970.92
2019-01-30T05:55:35.680Z,970.91
2019-01-30T05:56:35.792Z,970.91
2019-01-30T05:57:36.019Z,970.91
2019-01-30T05:58:36.155Z,970.85
2019-01-30T05:59:36.353Z,970.88
2019-01-30T06:00:36.377Z,970.86
2019-01-30T06:01:36.843Z,970.85
2019-01-30T06:02:36.729Z,970.87
2019-01-30T06:03:36.785Z,970.79
2019-01-30T06:04:36.989Z,970.85
2019-01-30T06:05:37.226Z,970.83
2019-01-30T06:06:37.308Z,970.82
2019-01-30T06:07:37.586Z,970.77
2019-01-30T06:08:37.649Z,970.78
2019-01-30T06:09:37.801Z,970.78
2019-01-30T06:10:37.863Z,970.74
2019-01-30T06:11:38.072Z,970.71
2019-01-30T06:12:38.257Z,970.74
2019-01-30T06:13:38.436Z,970.72
2019-01-30T06:14:38.645Z,970.75
2019-01-30T06:15:38.899Z,970.76
2019-01-30T06:16:39.067Z,970.74
2019-01-30T06:17:39.131Z,970.72
2019-01-30T06:18:39.374Z,970.71
2019-01-30T06:19:39.544Z,970.71
2019-01-30T06:20:39.711Z,970.72
2019-01-30T06:21:39.798Z,970.69
2019-01-30T06:22:40.206Z,970.74
2019-01-30T06:23:40.124Z,970.72
2019-01-30T06:24:40.209Z,970.71
2019-01-30T06:25:40.514Z,970.72
2019-01-30T06:26:40.536Z,970.66
2019-01-30T06:27:40.832Z,970.66
2019-01-30T06:28:40.988Z,970.65
2019-01-30T06:29:41.110Z,970.64
2019-01-30T06:30:43.649Z,970.63
2019-01-30T06:31:41.310Z,970.62
2019-01-30T06:32:43.034Z,970.62
2019-01-30T06:33:45.127Z,970.54
2019-01-30T06:34:45.521Z,970.55
2019-01-30T06:35:44.255Z,970.56
2019-01-30T06:36:43.408Z,970.54
2019-01-30T06:37:44.565Z,970.56
2019-01-30T06:38:42.474Z,970.55
2019-01-30T06:39:42.542Z,970.53
2019-01-30T06:40:42.768Z,970.53
2019-01-30T06:41:42.966Z,970.52
2019-01-30T06:42:43.088Z,970.55
2019-01-30T06:43:43.273Z,970.50
2019-01-30T06:44:43.467Z,970.51
2019-01-30T06:45:43.721Z,970.51
2019-01-30T06:46:43.836Z,970.49
2019-01-30T06:47:43.945Z,970.46
2019-01-30T06:48:44.012Z,970.47
2019-01-30T06:49:44.189Z,970.43
2019-01-30T06:50:44.401Z,970.40
2019-01-30T06:51:44.585Z,970.42
2019-01-30T06:52:44.774Z,970.40
2019-01-30T06:53:44.971Z,970.41
2019-01-30T06:54:45.190Z,970.41
2019-01-30T06:55:45.329Z,970.40
2019-01-30T06:56:45.404Z,970.36
2019-01-30T06:57:45.625Z,970.36
2019-01-30T06:58:45.808Z,970.40
2019-01-30T06:59:46.050Z,970.37
2019-01-30T07:00:46.162Z,970.38
2019-01-30T07:01:46.281Z,970.43
2019-01-30T07:02:46.377Z,970.42
2019-01-30T07:03:46.487Z,970.47
2019-01-30T07:04:46.562Z,970.46
2019-01-30T07:05:46.740Z,970.45
2019-01-30T07:06:46.969Z,970.45
2019-01-30T07:07:47.032Z,970.48
2019-01-30T07:08:47.218Z,970.51
2019-01-30T07:09:47.498Z,970.53
2019-01-30T07:10:47.551Z,970.46
2019-01-30T07:11:47.828Z,970.50
2019-01-30T07:12:48.124Z,970.50
2019-01-30T07:13:48.055Z,970.52
2019-01-30T07:14:48.242Z,970.54
2019-01-30T07:15:48.543Z,970.47
2019-01-30T07:16:48.698Z,970.47
2019-01-30T07:17:48.777Z,970.47
2019-01-30T07:18:49.054Z,970.42
2019-01-30T07:19:49.274Z,970.52
2019-01-30T07:20:49.528Z,970.47
2019-01-30T07:21:49.453Z,970.48
2019-01-30T07:22:49.613Z,970.39
2019-01-30T07:23:49.883Z,970.39
2019-01-30T07:24:49.846Z,970.39
2019-01-30T07:25:50.033Z,970.41
2019-01-30T07:26:50.990Z,970.43
2019-01-30T07:27:50.665Z,970.41
2019-01-30T07:28:50.655Z,970.44
2019-01-30T07:29:50.854Z,970.44
2019-01-30T07:30:51.099Z,970.46
2019-01-30T07:31:51.307Z,970.45
2019-01-30T07:32:51.576Z,970.40
2019-01-30T07:33:52.211Z,970.44
2019-01-30T07:34:52.021Z,970.49
2019-01-30T07:35:51.782Z,970.46
2019-01-30T07:36:51.958Z,970.46
2019-01-30T07:37:52.155Z,970.49
2019-01-30T07:38:52.325Z,970.48
2019-01-30T07:39:52.291Z,970.48
2019-01-30T07:40:52.619Z,970.46
2019-01-30T07:41:52.614Z,970.43
2019-01-30T07:42:52.999Z,970.41
2019-01-30T07:43:52.945Z,970.43
2019-01-30T07:44:53.049Z,970.49
2019-01-30T07:45:53.237Z,970.48
2019-01-30T07:46:53.416Z,970.50
2019-01-30T07:47:53.629Z,970.53
2019-01-30T07:48:53.849Z,970.56
2019-01-30T07:49:54.147Z,970.50
2019-01-30T07:50:54.238Z,970.55
2019-01-30T07:51:54.318Z,970.50
2019-01-30T07:52:54.536Z,970.53
2019-01-30T07:53:54.984Z,970.49
2019-01-30T07:54:54.920Z,970.50
2019-01-30T07:55:55.142Z,970.52
2019-01-30T07:56:55.364Z,970.50
2019-01-30T07:57:55.444Z,970.47
2019-01-30T07:58:55.640Z,970.54
2019-01-30T07:59:55.872Z,970.52
2019-01-30T08:00:55.947Z,970.54
2019-01-30T08:01:56.265Z,970.54
2019-01-30T08:02:56.466Z,970.55
2019-01-30T08:03:56.590Z,970.48
2019-01-30T08:04:56.675Z,970.44
2019-01-30T08:05:56.856Z,970.38
2019-01-30T08:06:57.016Z,970.41
2019-01-30T08:07:57.055Z,970.42
2019-01-30T08:08:57.303Z,970.43
2019-01-30T08:09:57.444Z,970.44
2019-01-30T08:10:57.676Z,970.42
2019-01-30T08:12:34.271Z,970.41
2019-01-30T08:12:57.853Z,970.45
2019-01-30T08:13:57.979Z,970.40
2019-01-30T08:14:58.116Z,970.42
2019-01-30T08:15:58.627Z,970.43
2019-01-30T08:16:58.793Z,970.45
2019-01-30T08:18:00.400Z,970.38
2019-01-30T08:18:58.609Z,970.42
2019-01-30T08:19:58.837Z,970.43
2019-01-30T08:20:58.910Z,970.42
2019-01-30T08:21:59.386Z,970.43
2019-01-30T08:23:00.101Z,970.47
2019-01-30T08:23:59.516Z,970.45
2019-01-30T08:24:59.911Z,970.48
2019-01-30T08:25:59.680Z,970.46
2019-01-30T08:27:00.202Z,970.46
2019-01-30T08:27:59.998Z,970.42
2019-01-30T08:29:00.260Z,970.43
2019-01-30T08:30:01.108Z,970.45
2019-01-30T08:31:00.714Z,970.39
2019-01-30T08:32:00.738Z,970.41
2019-01-30T08:33:05.643Z,970.41
2019-01-30T08:34:02.578Z,970.41
2019-01-30T08:35:01.501Z,970.40
2019-01-30T08:36:01.567Z,970.42
2019-01-30T08:37:01.672Z,970.42
2019-01-30T08:38:01.754Z,970.37
2019-01-30T08:39:01.671Z,970.30
2019-01-30T08:40:01.869Z,970.33
2019-01-30T08:41:02.024Z,970.37
2019-01-30T08:42:02.362Z,970.44
2019-01-30T08:43:02.802Z,970.40
2019-01-30T08:44:02.792Z,970.42
2019-01-30T08:45:02.974Z,970.41
2019-01-30T08:46:03.027Z,970.37
2019-01-30T08:47:03.191Z,970.33
2019-01-30T08:48:03.461Z,970.35
2019-01-30T08:49:03.442Z,970.34
2019-01-30T08:50:03.560Z,970.35
2019-01-30T08:51:03.741Z,970.33
2019-01-30T08:52:04.137Z,970.32
2019-01-30T08:53:04.459Z,970.33
2019-01-30T08:54:04.179Z,970.30
2019-01-30T08:55:04.766Z,970.31
2019-01-30T08:56:04.790Z,970.30
2019-01-30T08:57:04.574Z,970.32
2019-01-30T08:58:04.737Z,970.31
2019-01-30T08:59:06.029Z,970.33
2019-01-30T09:00:04.941Z,970.28
2019-01-30T09:01:05.163Z,970.26
2019-01-30T09:02:05.524Z,970.27
2019-01-30T09:03:14.479Z,970.30
2019-01-30T09:04:05.400Z,970.33
2019-01-30T09:05:06.239Z,970.35
2019-01-30T09:06:07.025Z,970.37
2019-01-30T09:07:06.220Z,970.34
2019-01-30T09:08:08.702Z,970.39
2019-01-30T09:09:06.514Z,970.37
2019-01-30T09:10:06.921Z,970.42
2019-01-30T09:11:06.646Z,970.38
2019-01-30T09:12:06.953Z,970.36
2019-01-30T09:13:06.896Z,970.35
2019-01-30T09:14:07.072Z,970.36
2019-01-30T09:15:07.400Z,970.37
2019-01-30T09:16:07.920Z,970.36
2019-01-30T09:17:08.759Z,970.41
2019-01-30T09:18:07.949Z,970.44
2019-01-30T09:19:07.951Z,970.37
2019-01-30T09:20:08.212Z,970.40
2019-01-30T09:21:08.483Z,970.40
2019-01-30T09:22:08.449Z,970.42
2019-01-30T09:23:08.684Z,970.43
2019-01-30T09:24:08.752Z,970.39
2019-01-30T09:25:08.940Z,970.46
2019-01-30T09:26:09.038Z,970.46
2019-01-30T09:27:09.199Z,970.46
2019-01-30T09:28:09.333Z,970.41
2019-01-30T09:29:09.704Z,970.40
2019-01-30T09:30:10.073Z,970.39
2019-01-30T09:31:10.083Z,970.38
2019-01-30T09:32:10.126Z,970.34
2019-01-30T09:33:10.340Z,970.31
2019-01-30T09:34:10.381Z,970.31
2019-01-30T09:35:10.754Z,970.29
2019-01-30T09:36:10.795Z,970.28
2019-01-30T09:37:10.973Z,970.23
2019-01-30T09:38:11.120Z,970.30
2019-01-30T09:39:11.049Z,970.29
2019-01-30T09:40:13.032Z,970.25
2019-01-30T09:41:11.606Z,970.32
2019-01-30T09:42:11.577Z,970.22
2019-01-30T09:43:11.773Z,970.23
2019-01-30T09:44:12.905Z,970.22
2019-01-30T09:45:12.222Z,970.29
2019-01-30T09:46:12.188Z,970.22
2019-01-30T09:47:12.393Z,970.21
2019-01-30T09:48:12.207Z,970.16
2019-01-30T09:49:12.473Z,970.16
2019-01-30T09:50:12.546Z,970.19
2019-01-30T09:51:12.719Z,970.22
2019-01-30T09:52:13.191Z,970.17
2019-01-30T09:53:13.065Z,970.14
2019-01-30T09:54:13.296Z,970.15
2019-01-30T09:55:13.403Z,970.19
2019-01-30T09:56:15.366Z,970.15
2019-01-30T09:57:13.620Z,970.11
2019-01-30T09:58:13.894Z,970.17
2019-01-30T09:59:14.094Z,970.15
2019-01-30T10:00:14.176Z,970.10
2019-01-30T10:01:14.286Z,970.09
2019-01-30T10:02:14.464Z,970.10
2019-01-30T10:03:14.577Z,970.10
2019-01-30T10:04:14.720Z,970.07
2019-01-30T10:05:15.118Z,970.06
2019-01-30T10:06:15.062Z,970.06
2019-01-30T10:07:15.126Z,970.07
2019-01-30T10:08:15.387Z,970.06
2019-01-30T10:09:15.629Z,970.07
2019-01-30T10:10:15.644Z,970.03
2019-01-30T10:11:15.837Z,970.03
2019-01-30T10:12:16.039Z,970.03
2019-01-30T10:13:16.234Z,970.03
2019-01-30T10:14:16.426Z,970.05
2019-01-30T10:15:16.668Z,970.00
2019-01-30T10:16:16.795Z,970.00
2019-01-30T10:17:16.922Z,970.03
2019-01-30T10:18:17.042Z,970.05
2019-01-30T10:19:17.138Z,970.02
2019-01-30T10:20:17.321Z,970.02
2019-01-30T10:21:17.485Z,970.05
2019-01-30T10:22:17.728Z,970.01
2019-01-30T10:23:17.867Z,970.00
2019-01-30T10:24:17.956Z,969.97
2019-01-30T10:25:18.174Z,970.07
2019-01-30T10:26:18.352Z,970.06
2019-01-30T10:27:18.550Z,970.03
2019-01-30T10:28:18.738Z,970.05
2019-01-30T10:29:18.987Z,970.05
2019-01-30T10:30:19.124Z,970.04
2019-01-30T10:31:19.302Z,970.04
2019-01-30T10:32:19.534Z,970.06
2019-01-30T10:33:19.643Z,969.98
2019-01-30T10:34:19.815Z,970.04
2019-01-30T10:35:19.901Z,970.01
2019-01-30T10:36:20.115Z,970.01
2019-01-30T10:37:20.308Z,969.99
2019-01-30T10:38:20.514Z,970.02
2019-01-30T10:39:20.629Z,969.98
2019-01-30T10:40:20.867Z,970.03
2019-01-30T10:41:21.911Z,969.97
2019-01-30T10:42:21.183Z,969.99
2019-01-30T10:43:21.258Z,969.97
2019-01-30T10:44:21.314Z,970.00
2019-01-30T10:45:21.656Z,970.02
2019-01-30T10:46:21.733Z,969.93
2019-01-30T10:47:21.976Z,969.93
2019-01-30T10:48:22.116Z,969.97
2019-01-30T10:49:22.182Z,969.96
2019-01-30T10:50:22.605Z,969.97
2019-01-30T10:51:22.662Z,969.93
2019-01-30T10:52:22.758Z,969.95
2019-01-30T10:53:23.032Z,969.91
2019-01-30T10:54:23.182Z,969.97
2019-01-30T10:55:23.393Z,969.96
2019-01-30T10:56:23.462Z,969.92
2019-01-30T10:57:23.563Z,970.00
2019-01-30T10:58:25.125Z,969.99
2019-01-30T10:59:26.535Z,969.93
2019-01-30T11:00:24.136Z,969.99
2019-01-30T11:01:24.240Z,969.98
2019-01-30T11:02:24.776Z,970.00
2019-01-30T11:03:24.745Z,969.92
2019-01-30T11:04:24.605Z,969.91
2019-01-30T11:05:24.738Z,969.91
2019-01-30T11:06:24.783Z,969.95
2019-01-30T11:07:24.952Z,969.89
2019-01-30T11:08:25.238Z,969.93
2019-01-30T11:09:25.342Z,969.86
2019-01-30T11:10:25.666Z,969.87
2019-01-30T11:11:25.685Z,969.87
2019-01-30T11:12:25.760Z,969.85
2019-01-30T11:13:25.986Z,969.84
2019-01-30T11:14:26.171Z,969.87
2019-01-30T11:15:26.297Z,969.83
2019-01-30T11:16:26.516Z,969.85
2019-01-30T11:17:26.569Z,969.83
2019-01-30T11:18:26.716Z,969.86
2019-01-30T11:19:26.795Z,969.82
2019-01-30T11:20:26.938Z,969.84
2019-01-30T11:21:27.120Z,969.86
2019-01-30T11:22:27.390Z,969.86
2019-01-30T11:23:27.477Z,969.84
2019-01-30T11:24:27.639Z,969.85
2019-01-30T11:25:27.807Z,969.82
2019-01-30T11:26:27.983Z,969.84
2019-01-30T11:27:28.186Z,969.80
2019-01-30T11:28:28.400Z,969.84
2019-01-30T11:29:28.541Z,969.82
2019-01-30T11:30:28.787Z,969.81
2019-01-30T11:31:28.855Z,969.81
2019-01-30T11:32:29.114Z,969.87
2019-01-30T11:33:29.222Z,969.81
2019-01-30T11:34:29.280Z,969.82
2019-01-30T11:35:29.519Z,969.85
2019-01-30T11:36:29.617Z,969.84
2019-01-30T11:37:29.802Z,969.85
2019-01-30T11:38:29.989Z,969.80
2019-01-30T11:39:30.210Z,969.81
2019-01-30T11:40:30.307Z,969.80
2019-01-30T11:41:30.370Z,969.78
2019-01-30T11:42:30.583Z,969.88
2019-01-30T11:43:30.875Z,969.84
2019-01-30T11:44:35.484Z,969.84
2019-01-30T11:45:32.899Z,969.79
2019-01-30T11:47:08.364Z,969.78
2019-01-30T11:47:34.164Z,969.81
2019-01-30T11:48:33.096Z,969.81
2019-01-30T11:49:34.998Z,969.82
2019-01-30T11:50:33.853Z,969.77
2019-01-30T11:51:32.513Z,969.73
2019-01-30T11:52:36.764Z,969.70
2019-01-30T11:53:34.358Z,969.72
2019-01-30T11:54:38.739Z,969.70
2019-01-30T11:55:32.857Z,969.74
2019-01-30T11:56:32.956Z,969.70
2019-01-30T11:57:33.288Z,969.69
2019-01-30T11:58:33.216Z,969.69
2019-01-30T11:59:33.459Z,969.71
2019-01-30T12:00:33.541Z,969.70
2019-01-30T12:01:33.888Z,969.67
2019-01-30T12:02:33.901Z,969.67
2019-01-30T12:03:34.192Z,969.70
2019-01-30T12:04:34.195Z,969.70
2019-01-30T12:05:34.302Z,969.69
2019-01-30T12:06:34.402Z,969.69
2019-01-30T12:07:34.537Z,969.70
2019-01-30T12:08:34.630Z,969.66
2019-01-30T12:09:35.634Z,969.70
2019-01-30T12:10:34.988Z,969.68
2019-01-30T12:11:35.257Z,969.71
2019-01-30T12:12:38.897Z,969.61
2019-01-30T12:13:36.596Z,969.66
2019-01-30T12:14:39.203Z,969.65
2019-01-30T12:15:38.663Z,969.66
2019-01-30T12:16:37.670Z,969.62
2019-01-30T12:17:37.539Z,969.60
2019-01-30T12:18:37.427Z,969.65
2019-01-30T12:19:38.468Z,969.67
2019-01-30T12:20:36.865Z,969.65
2019-01-30T12:21:36.947Z,969.60
2019-01-30T12:22:37.034Z,969.60
2019-01-30T12:23:37.098Z,969.60
2019-01-30T12:24:37.299Z,969.60
2019-01-30T12:25:37.576Z,969.59
2019-01-30T12:26:40.406Z,969.56
2019-01-30T12:27:38.944Z,969.55
2019-01-30T12:28:40.414Z,969.54
2019-01-30T12:29:40.043Z,969.55
2019-01-30T12:30:38.507Z,969.59